Time;durP1;ratioP1;P1;durP2;ratioP2;P2;SDS_P1;SDS_P2;PMS_P1;PMS_P2;Temp;Humidity;BMP_temperature;BMP_pressure;BME280_temperature;BME280_humidity;BME280_pressure;Samples;Min_cycle;Max_cycle;Signal;HPM_P1;HPM_P2
2021/09/19 00:01:47;;;;;;;;;;;;;;;;;;5092702;28;19924;-69
2021/09/19 00:04:13;;;;;;;;;;;;;;;;;;5093099;28;19924;-71
2021/09/19 00:06:40;;;;;;;;;;;;;;;;;;5092646;28;19924;-70
2021/09/19 00:09:06;;;;;;;;;;;;;;;;;;5092495;28;19924;-70
2021/09/19 00:11:32;;;;;;;;;;;;;;;;;;5092548;28;19924;-70
2021/09/19 00:13:59;;;;;;;;;;;;;;;;;;5092660;28;20375;-70
2021/09/19 00:16:26;;;;;;;;;;;;;;;;;;5092649;28;19928;-70
2021/09/19 00:18:52;;;;;;;;;;;;;;;;;;5092711;28;19924;-70
2021/09/19 00:21:18;;;;;;;;;;;;;;;;;;5092370;28;19924;-70
2021/09/19 00:23:45;;;;;;;;;;;;;;;;;;5092201;28;19928;-70
2021/09/19 00:26:11;;;;;;;;;;;;;;;;;;5092677;28;19924;-70
2021/09/19 00:28:37;;;;;;;;;;;;;;;;;;5092145;28;19924;-69
2021/09/19 00:31:04;;;;;;;;;;;;;;;;;;5092565;28;19931;-69
2021/09/19 00:33:30;;;;;;;;;;;;;;;;;;5091988;28;20309;-69
2021/09/19 00:35:56;;;;;;;;;;;;;;;;;;5092367;28;19924;-70
2021/09/19 00:38:22;;;;;;;;;;;;;;;;;;5092409;28;19924;-70
2021/09/19 00:40:49;;;;;;;;;;;;;;;;;;5092104;28;19924;-69
2021/09/19 00:43:15;;;;;;;;;;;;;;;;;;5092610;28;19928;-69
2021/09/19 00:45:41;;;;;;;;;;;;;;;;;;5092302;28;20295;-70
2021/09/19 00:48:08;;;;;;;;;;;;;;;;;;5092356;28;19925;-69
2021/09/19 00:50:34;;;;;;;;;;;;;;;;;;5092263;28;19935;-70
2021/09/19 00:53:00;;;;;;;;;;;;;;;;;;5092153;28;19924;-70
2021/09/19 00:55:26;;;;;;;;;;;;;;;;;;5091851;28;19930;-69
2021/09/19 00:57:53;;;;;;;;;;;;;;;;;;5092515;28;19924;-69
2021/09/19 01:00:19;;;;;;;;;;;;;;;;;;5092108;28;19924;-70
2021/09/19 01:02:45;;;;;;;;;;;;;;;;;;5092269;28;19928;-70
2021/09/19 01:05:12;;;;;;;;;;;;;;;;;;5092295;28;19924;-69
2021/09/19 01:07:38;;;;;;;;;;;;;;;;;;5091969;28;19924;-70
2021/09/19 01:10:04;;;;;;;;;;;;;;;;;;5095092;28;19924;-70
2021/09/19 01:12:31;;;;;;;;;;;;;;;;;;5095567;28;20394;-69
2021/09/19 01:14:57;;;;;;;;;;;;;;;;;;5095647;28;19931;-69
2021/09/19 01:17:23;;;;;;;;;;;;;;;;;;5095696;28;19924;-69
2021/09/19 01:19:50;;;;;;;;;;;;;;;;;;5095886;28;20293;-69
2021/09/19 01:22:16;;;;;;;;;;;;;;;;;;5095560;28;19928;-70
2021/09/19 01:24:42;;;;;;;;;;;;;;;;;;5095296;28;19924;-70
2021/09/19 01:27:08;;;;;;;;;;;;;;;;;;5095703;28;19927;-69
2021/09/19 01:29:35;;;;;;;;;;;;;;;;;;5095166;28;19935;-69
2021/09/19 01:32:02;;;;;;;;;;;;;;;;;;5095599;28;19939;-69
2021/09/19 01:34:29;;;;;;;;;;;;;;;;;;5095314;28;19978;-69
2021/09/19 01:36:55;;;;;;;;;;;;;;;;;;5095379;28;19925;-69
2021/09/19 01:39:21;;;;;;;;;;;;;;;;;;5095275;28;19931;-68
2021/09/19 01:41:48;;;;;;;;;;;;;;;;;;5095252;28;19924;-69
2021/09/19 01:44:14;;;;;;;;;;;;;;;;;;5095299;28;19924;-69
2021/09/19 01:46:40;;;;;;;;;;;;;;;;;;5095144;28;19924;-69
2021/09/19 01:49:07;;;;;;;;;;;;;;;;;;5095055;28;19928;-69
2021/09/19 01:51:34;;;;;;;;;;;;;;;;;;5094892;28;19930;-69
2021/09/19 01:54:00;;;;;;;;;;;;;;;;;;5095191;28;19936;-69
2021/09/19 01:56:26;;;;;;;;;;;;;;;;;;5094639;28;20404;-69
2021/09/19 01:58:52;;;;;;;;;;;;;;;;;;5095062;28;19924;-69
2021/09/19 02:01:21;;;;;;;;;;;;;;;;;;5095323;28;20269;-69
2021/09/19 02:03:47;;;;;;;;;;;;;;;;;;5094675;28;19924;-69
2021/09/19 02:06:13;;;;;;;;;;;;;;;;;;5094921;28;19931;-69
2021/09/19 02:08:40;;;;;;;;;;;;;;;;;;5094423;28;20385;-68
2021/09/19 02:11:06;;;;;;;;;;;;;;;;;;5094628;28;19928;-68
2021/09/19 02:13:32;;;;;;;;;;;;;;;;;;5094568;28;19924;-69
2021/09/19 02:15:59;;;;;;;;;;;;;;;;;;5094581;28;19925;-69
2021/09/19 02:18:25;;;;;;;;;;;;;;;;;;5094397;28;19924;-69
2021/09/19 02:20:51;;;;;;;;;;;;;;;;;;5093652;28;19924;-68
2021/09/19 02:23:17;;;;;;;;;;;;;;;;;;5094218;28;19924;-68
2021/09/19 02:25:44;;;;;;;;;;;;;;;;;;5094392;28;19931;-69
2021/09/19 02:28:10;;;;;;;;;;;;;;;;;;5094287;28;20371;-68
2021/09/19 02:30:36;;;;;;;;;;;;;;;;;;5093845;28;19928;-69
2021/09/19 02:33:03;;;;;;;;;;;;;;;;;;5094494;28;19924;-69
2021/09/19 02:35:29;;;;;;;;;;;;;;;;;;5094008;28;19925;-69
2021/09/19 02:37:55;;;;;;;;;;;;;;;;;;5094402;28;19932;-69
2021/09/19 02:40:21;;;;;;;;;;;;;;;;;;5094193;28;20298;-69
2021/09/19 02:42:48;;;;;;;;;;;;;;;;;;5094160;28;19931;-69
2021/09/19 02:45:14;;;;;;;;;;;;;;;;;;5094113;28;19924;-69
2021/09/19 02:47:40;;;;;;;;;;;;;;;;;;5093609;28;20298;-68
2021/09/19 02:50:07;;;;;;;;;;;;;;;;;;5093818;28;19928;-68
2021/09/19 02:52:33;;;;;;;;;;;;;;;;;;5093899;28;19925;-69
2021/09/19 02:54:59;;;;;;;;;;;;;;;;;;5093558;28;20283;-68
2021/09/19 02:57:26;;;;;;;;;;;;;;;;;;5093404;28;19931;-68
2021/09/19 02:59:52;;;;;;;;;;;;;;;;;;5093941;28;19925;-68
2021/09/19 03:02:18;;;;;;;;;;;;;;;;;;5093866;28;19924;-69
2021/09/19 03:04:45;;;;;;;;;;;;;;;;;;5093222;28;19931;-69
2021/09/19 03:07:11;;;;;;;;;;;;;;;;;;5093808;28;20317;-69
2021/09/19 03:09:37;;;;;;;;;;;;;;;;;;5093160;28;19928;-69
2021/09/19 03:12:03;;;;;;;;;;;;;;;;;;5093719;28;19924;-69
2021/09/19 03:14:30;;;;;;;;;;;;;;;;;;5093029;28;20385;-69
2021/09/19 03:16:56;;;;;;;;;;;;;;;;;;5093251;28;19953;-69
2021/09/19 03:19:22;;;;;;;;;;;;;;;;;;5093504;28;19932;-69
2021/09/19 03:21:49;;;;;;;;;;;;;;;;;;5093331;28;20391;-68
2021/09/19 03:24:15;;;;;;;;;;;;;;;;;;5093381;28;19931;-68
2021/09/19 03:26:41;;;;;;;;;;;;;;;;;;5093494;28;19951;-69
2021/09/19 03:29:08;;;;;;;;;;;;;;;;;;5092922;28;19928;-69
2021/09/19 03:31:34;;;;;;;;;;;;;;;;;;5093009;28;19924;-69
2021/09/19 03:34:00;;;;;;;;;;;;;;;;;;5093380;28;20297;-69
2021/09/19 03:36:27;;;;;;;;;;;;;;;;;;5092978;28;19925;-69
2021/09/19 03:38:53;;;;;;;;;;;;;;;;;;5093226;28;19938;-69
2021/09/19 03:41:19;;;;;;;;;;;;;;;;;;5093262;28;19928;-68
2021/09/19 03:43:46;;;;;;;;;;;;;;;;;;5092587;28;19931;-70
2021/09/19 03:46:12;;;;;;;;;;;;;;;;;;5092779;28;19924;-69
2021/09/19 03:48:38;;;;;;;;;;;;;;;;;;5092997;28;19928;-70
2021/09/19 03:51:05;;;;;;;;;;;;;;;;;;5093329;28;19924;-69
2021/09/19 03:53:31;;;;;;;;;;;;;;;;;;5092586;28;19924;-69
2021/09/19 03:55:57;;;;;;;;;;;;;;;;;;5093336;28;19924;-69
2021/09/19 03:58:23;;;;;;;;;;;;;;;;;;5092497;28;19924;-69
2021/09/19 04:00:50;;;;;;;;;;;;;;;;;;5092937;28;19924;-69
2021/09/19 04:03:16;;;;;;;;;;;;;;;;;;5092570;28;20275;-68
2021/09/19 04:05:42;;;;;;;;;;;;;;;;;;5092392;28;19924;-69
2021/09/19 04:08:09;;;;;;;;;;;;;;;;;;5092940;28;19928;-69
2021/09/19 04:10:35;;;;;;;;;;;;;;;;;;5092655;28;19931;-70
2021/09/19 04:13:01;;;;;;;;;;;;;;;;;;5092811;28;19924;-69
2021/09/19 04:15:28;;;;;;;;;;;;;;;;;;5092257;28;19924;-69
2021/09/19 04:17:54;;;;;;;;;;;;;;;;;;5092941;28;19932;-69
2021/09/19 04:20:20;;;;;;;;;;;;;;;;;;5092617;28;20408;-69
2021/09/19 04:22:47;;;;;;;;;;;;;;;;;;5092146;28;19931;-69
2021/09/19 04:25:13;;;;;;;;;;;;;;;;;;5092339;28;19931;-69
2021/09/19 04:27:39;;;;;;;;;;;;;;;;;;5092122;28;19928;-69
2021/09/19 04:30:05;;;;;;;;;;;;;;;;;;5092890;28;19924;-69
2021/09/19 04:32:32;;;;;;;;;;;;;;;;;;5092144;28;20286;-69
2021/09/19 04:34:58;;;;;;;;;;;;;;;;;;5092482;28;19931;-69
2021/09/19 04:37:24;;;;;;;;;;;;;;;;;;5092625;28;19924;-69
2021/09/19 04:39:51;;;;;;;;;;;;;;;;;;5092338;28;19924;-69
2021/09/19 04:42:17;;;;;;;;;;;;;;;;;;5092656;28;19932;-69
2021/09/19 04:44:43;;;;;;;;;;;;;;;;;;5094521;28;20784;-69
2021/09/19 04:47:09;;;;;;;;;;;;;;;;;;5096508;28;19928;-69
2021/09/19 04:49:36;;;;;;;;;;;;;;;;;;5096262;28;19924;-69
2021/09/19 04:52:02;;;;;;;;;;;;;;;;;;5096145;28;19924;-69
2021/09/19 04:54:28;;;;;;;;;;;;;;;;;;5096017;28;19924;-69
2021/09/19 04:56:55;;;;;;;;;;;;;;;;;;5096398;28;19924;-69
2021/09/19 04:59:21;;;;;;;;;;;;;;;;;;5096100;28;19924;-69
2021/09/19 05:01:47;;;;;;;;;;;;;;;;;;5096026;28;19931;-69
2021/09/19 05:04:14;;;;;;;;;;;;;;;;;;5095796;28;20409;-70
2021/09/19 05:06:40;;;;;;;;;;;;;;;;;;5095591;28;19935;-69
2021/09/19 05:09:06;;;;;;;;;;;;;;;;;;5096224;28;19924;-69
2021/09/19 05:11:32;;;;;;;;;;;;;;;;;;5095574;28;19924;-69
2021/09/19 05:13:59;;;;;;;;;;;;;;;;;;5096057;28;19931;-69
2021/09/19 05:16:26;;;;;;;;;;;;;;;;;;5095358;28;20382;-69
2021/09/19 05:18:52;;;;;;;;;;;;;;;;;;5095871;28;19931;-69
2021/09/19 05:21:18;;;;;;;;;;;;;;;;;;5095591;28;20394;-69
2021/09/19 05:23:45;;;;;;;;;;;;;;;;;;5095236;28;19935;-69
2021/09/19 05:26:11;;;;;;;;;;;;;;;;;;5095802;28;19931;-69
2021/09/19 05:28:37;;;;;;;;;;;;;;;;;;5095056;28;19939;-69
2021/09/19 05:31:04;;;;;;;;;;;;;;;;;;5095425;28;19924;-69
2021/09/19 05:33:30;;;;;;;;;;;;;;;;;;5095151;28;19928;-69
2021/09/19 05:35:56;;;;;;;;;;;;;;;;;;5095154;28;19924;-69
2021/09/19 05:38:22;;;;;;;;;;;;;;;;;;5095648;28;19998;-69
2021/09/19 05:40:49;;;;;;;;;;;;;;;;;;5095089;28;19931;-69
2021/09/19 05:43:15;;;;;;;;;;;;;;;;;;5095538;28;19931;-69
2021/09/19 05:45:41;;;;;;;;;;;;;;;;;;5095120;28;20314;-69
2021/09/19 05:48:08;;;;;;;;;;;;;;;;;;5094984;28;20342;-69
2021/09/19 05:50:34;;;;;;;;;;;;;;;;;;5094771;28;19924;-69
2021/09/19 05:53:00;;;;;;;;;;;;;;;;;;5095328;28;19928;-69
2021/09/19 05:55:26;;;;;;;;;;;;;;;;;;5094503;28;20386;-69
2021/09/19 05:57:53;;;;;;;;;;;;;;;;;;5094902;28;19924;-70
2021/09/19 06:00:19;;;;;;;;;;;;;;;;;;5095054;28;19928;-69
2021/09/19 06:02:45;;;;;;;;;;;;;;;;;;5094484;28;19924;-69
2021/09/19 06:05:12;;;;;;;;;;;;;;;;;;5095160;28;19931;-68
2021/09/19 06:07:38;;;;;;;;;;;;;;;;;;5094640;28;19966;-69
2021/09/19 06:10:04;;;;;;;;;;;;;;;;;;5094954;28;19924;-69
2021/09/19 06:12:31;;;;;;;;;;;;;;;;;;5094333;28;20382;-69
2021/09/19 06:14:57;;;;;;;;;;;;;;;;;;5094726;28;19931;-69
2021/09/19 06:17:23;;;;;;;;;;;;;;;;;;5094404;28;20290;-68
2021/09/19 06:19:49;;;;;;;;;;;;;;;;;;5094408;28;19931;-68
2021/09/19 06:22:16;;;;;;;;;;;;;;;;;;5094768;28;19931;-68
2021/09/19 06:24:42;;;;;;;;;;;;;;;;;;5094033;28;20382;-68
2021/09/19 06:27:08;;;;;;;;;;;;;;;;;;5094325;28;19924;-69
2021/09/19 06:29:35;;;;;;;;;;;;;;;;;;5094374;28;19935;-69
2021/09/19 06:32:01;;;;;;;;;;;;;;;;;;5094193;28;19928;-69
2021/09/19 06:34:27;;;;;;;;;;;;;;;;;;5094101;28;19924;-70
2021/09/19 06:36:53;;;;;;;;;;;;;;;;;;5094110;28;20413;-69
2021/09/19 06:39:20;;;;;;;;;;;;;;;;;;5094347;28;19925;-70
2021/09/19 06:41:46;;;;;;;;;;;;;;;;;;5094120;28;19931;-69
2021/09/19 06:44:12;;;;;;;;;;;;;;;;;;5094211;28;20271;-69
2021/09/19 06:46:39;;;;;;;;;;;;;;;;;;5093581;28;19924;-69
2021/09/19 06:49:05;;;;;;;;;;;;;;;;;;5094244;28;19924;-69
2021/09/19 06:51:31;;;;;;;;;;;;;;;;;;5093612;28;20519;-69
2021/09/19 06:53:58;;;;;;;;;;;;;;;;;;5093800;28;19924;-70
2021/09/19 06:56:24;;;;;;;;;;;;;;;;;;5093778;28;19930;-70
2021/09/19 06:58:50;;;;;;;;;;;;;;;;;;5093948;28;19924;-69
2021/09/19 07:01:17;;;;;;;;;;;;;;;;;;5093606;28;19924;-70
2021/09/19 07:03:43;;;;;;;;;;;;;;;;;;5093658;28;19924;-70
2021/09/19 07:06:09;;;;;;;;;;;;;;;;;;5093152;28;19925;-69
2021/09/19 07:08:35;;;;;;;;;;;;;;;;;;5093746;28;19935;-69
2021/09/19 07:11:02;;;;;;;;;;;;;;;;;;5093452;28;20267;-69
2021/09/19 07:13:28;;;;;;;;;;;;;;;;;;5093203;28;19924;-69
2021/09/19 07:15:54;;;;;;;;;;;;;;;;;;5093587;28;19924;-69
2021/09/19 07:18:21;;;;;;;;;;;;;;;;;;5093499;28;19932;-69
2021/09/19 07:20:47;;;;;;;;;;;;;;;;;;5092955;28;19924;-69
2021/09/19 07:23:13;;;;;;;;;;;;;;;;;;5093294;28;19947;-69
2021/09/19 07:25:39;;;;;;;;;;;;;;;;;;5093035;28;19932;-69
2021/09/19 07:28:06;;;;;;;;;;;;;;;;;;5093543;28;19931;-69
2021/09/19 07:30:32;;;;;;;;;;;;;;;;;;5093119;28;19978;-69
2021/09/19 07:32:59;;;;;;;;;;;;;;;;;;5093350;28;19947;-70
2021/09/19 07:35:25;;;;;;;;;;;;;;;;;;5092705;28;19924;-72
2021/09/19 07:37:51;;;;;;;;;;;;;;;;;;5093350;28;19924;-72
2021/09/19 07:40:18;;;;;;;;;;;;;;;;;;5092830;28;20359;-73
2021/09/19 07:42:44;;;;;;;;;;;;;;;;;;5093024;28;19924;-72
2021/09/19 07:45:10;;;;;;;;;;;;;;;;;;5092886;28;19931;-72
2021/09/19 07:47:37;;;;;;;;;;;;;;;;;;5092595;28;19924;-72
2021/09/19 07:50:03;;;;;;;;;;;;;;;;;;5092841;28;20401;-71
2021/09/19 07:52:29;;;;;;;;;;;;;;;;;;5092384;28;19930;-72
2021/09/19 07:54:55;;;;;;;;;;;;;;;;;;5093017;28;19931;-72
2021/09/19 07:57:22;;;;;;;;;;;;;;;;;;5092736;28;19928;-72
2021/09/19 07:59:48;;;;;;;;;;;;;;;;;;5092869;28;19931;-72
2021/09/19 08:02:14;;;;;;;;;;;;;;;;;;5092654;28;20402;-72
2021/09/19 08:04:41;;;;;;;;;;;;;;;;;;5092287;28;19924;-72
2021/09/19 08:07:07;;;;;;;;;;;;;;;;;;5092779;28;19930;-72
2021/09/19 08:09:33;;;;;;;;;;;;;;;;;;5092667;28;19932;-72
2021/09/19 08:12:00;;;;;;;;;;;;;;;;;;5092771;28;20346;-71
2021/09/19 08:14:26;;;;;;;;;;;;;;;;;;5092314;28;19931;-71
2021/09/19 08:16:52;;;;;;;;;;;;;;;;;;5092417;28;20032;-72
2021/09/19 08:19:21;;;;;;;;;;;;;;;;;;5094637;28;19924;-72
2021/09/19 08:21:47;;;;;;;;;;;;;;;;;;5096477;28;19924;-72
2021/09/19 08:24:13;;;;;;;;;;;;;;;;;;5096713;28;19924;-71
2021/09/19 08:26:40;;;;;;;;;;;;;;;;;;5096790;28;19924;-72
2021/09/19 08:29:06;;;;;;;;;;;;;;;;;;5096881;28;19924;-73
2021/09/19 08:31:32;;;;;;;;;;;;;;;;;;5096525;28;19928;-73
2021/09/19 08:33:59;;;;;;;;;;;;;;;;;;5101223;28;19924;-74
2021/09/19 08:36:26;;;;;;;;;;;;;;;;;;5112874;28;19931;-76
2021/09/19 08:38:52;;;;;;;;;;;;;;;;;;5098914;28;19928;-73
2021/09/19 08:41:18;;;;;;;;;;;;;;;;;;5098411;28;20337;-74
2021/09/19 08:43:45;;;;;;;;;;;;;;;;;;5116278;28;19927;-72
2021/09/19 08:46:11;;;;;;;;;;;;;;;;;;5116886;28;19930;-74
2021/09/19 08:48:37;;;;;;;;;;;;;;;;;;5116551;28;20361;-74
2021/09/19 08:51:04;;;;;;;;;;;;;;;;;;5103748;28;20369;-75
2021/09/19 08:53:31;;;;;;;;;;;;;;;;;;5095962;28;19989;-73
2021/09/19 08:55:57;;;;;;;;;;;;;;;;;;5096000;28;19924;-73
2021/09/19 08:58:24;;;;;;;;;;;;;;;;;;5096253;28;19924;-74
2021/09/19 09:00:50;;;;;;;;;;;;;;;;;;5095813;28;20370;-75
2021/09/19 09:03:16;;;;;;;;;;;;;;;;;;5096125;28;19931;-73
2021/09/19 09:05:43;;;;;;;;;;;;;;;;;;5095937;28;19951;-73
2021/09/19 09:08:09;;;;;;;;;;;;;;;;;;5108578;28;19940;-73
2021/09/19 09:10:35;;;;;;;;;;;;;;;;;;5116099;28;19934;-72
2021/09/19 09:13:02;;;;;;;;;;;;;;;;;;5116402;28;19924;-74
2021/09/19 09:15:28;;;;;;;;;;;;;;;;;;5115934;28;20289;-74
2021/09/19 09:17:54;;;;;;;;;;;;;;;;;;5115966;28;19924;-73
2021/09/19 09:20:20;;;;;;;;;;;;;;;;;;5116167;28;19924;-74
2021/09/19 09:22:47;;;;;;;;;;;;;;;;;;5115986;28;19923;-73
2021/09/19 09:25:13;;;;;;;;;;;;;;;;;;5115744;28;20373;-72
2021/09/19 09:27:39;;;;;;;;;;;;;;;;;;5115459;28;19924;-71
2021/09/19 09:30:06;;;;;;;;;;;;;;;;;;5115190;28;19923;-71
2021/09/19 09:32:32;;;;;;;;;;;;;;;;;;5115639;28;19924;-72
2021/09/19 09:34:58;;;;;;;;;;;;;;;;;;5115620;28;20381;-71
2021/09/19 09:37:25;;;;;;;;;;;;;;;;;;5114372;28;19930;-72
2021/09/19 09:39:51;;;;;;;;;;;;;;;;;;5114642;28;19931;-72
2021/09/19 09:42:17;;;;;;;;;;;;;;;;;;5115585;28;20400;-72
2021/09/19 09:44:44;;;;;;;;;;;;;;;;;;5115161;28;19927;-72
2021/09/19 09:47:10;;;;;;;;;;;;;;;;;;5115104;28;19931;-73
2021/09/19 09:49:36;;;;;;;;;;;;;;;;;;5114851;28;20374;-73
2021/09/19 09:52:02;;;;;;;;;;;;;;;;;;5115795;28;19924;-72
2021/09/19 09:54:29;;;;;;;;;;;;;;;;;;5115439;28;19924;-72
2021/09/19 09:56:55;;;;;;;;;;;;;;;;;;5115443;28;19931;-73
2021/09/19 09:59:21;;;;;;;;;;;;;;;;;;5115560;28;19924;-73
2021/09/19 10:01:48;;;;;;;;;;;;;;;;;;5115269;28;19946;-72
2021/09/19 10:04:14;;;;;;;;;;;;;;;;;;5115226;28;19934;-73
2021/09/19 10:06:40;;;;;;;;;;;;;;;;;;5114811;28;19924;-74
2021/09/19 10:09:07;;;;;;;;;;;;;;;;;;5115411;28;20026;-74
2021/09/19 10:11:33;;;;;;;;;;;;;;;;;;5115077;28;19924;-74
2021/09/19 10:13:59;;;;;;;;;;;;;;;;;;5114996;28;19930;-76
2021/09/19 10:16:25;;;;;;;;;;;;;;;;;;5114893;28;19931;-71
2021/09/19 10:18:52;;;;;;;;;;;;;;;;;;5114718;28;19924;-69
2021/09/19 10:21:18;;;;;;;;;;;;;;;;;;5114924;28;20005;-76
2021/09/19 10:23:45;;;;;;;;;;;;;;;;;;5107647;28;19939;-73
2021/09/19 10:26:12;;;;;;;;;;;;;;;;;;5097404;28;20355;-72
2021/09/19 10:28:39;;;;;;;;;;;;;;;;;;5114640;28;19924;-74
2021/09/19 10:31:05;;;;;;;;;;;;;;;;;;5106796;28;19924;-74
2021/09/19 10:33:31;;;;;;;;;;;;;;;;;;5093993;28;19924;-73
2021/09/19 10:35:58;;;;;;;;;;;;;;;;;;5094622;28;19924;-73
2021/09/19 10:38:24;;;;;;;;;;;;;;;;;;5094537;28;19928;-71
2021/09/19 10:40:50;;;;;;;;;;;;;;;;;;5112334;28;19924;-73
2021/09/19 10:43:16;;;;;;;;;;;;;;;;;;5113928;28;19924;-73
2021/09/19 10:45:43;;;;;;;;;;;;;;;;;;5114089;28;19924;-69
2021/09/19 10:48:09;;;;;;;;;;;;;;;;;;5114474;28;19953;-70
2021/09/19 10:50:36;;;;;;;;;;;;;;;;;;5114377;28;19934;-70
2021/09/19 10:53:03;;;;;;;;;;;;;;;;;;5114648;28;19929;-69
2021/09/19 10:55:29;;;;;;;;;;;;;;;;;;5113897;28;19923;-69
2021/09/19 10:57:55;;;;;;;;;;;;;;;;;;5095492;28;19924;-69
2021/09/19 11:00:21;;;;;;;;;;;;;;;;;;5093997;28;19932;-73
2021/09/19 11:02:48;;;;;;;;;;;;;;;;;;5093448;28;20413;-71
2021/09/19 11:05:14;;;;;;;;;;;;;;;;;;5093616;28;19935;-72
2021/09/19 11:07:40;;;;;;;;;;;;;;;;;;5093654;28;19924;-72
2021/09/19 11:10:07;;;;;;;;;;;;;;;;;;5093572;28;19939;-72
2021/09/19 11:12:33;;;;;;;;;;;;;;;;;;5093586;28;19931;-71
2021/09/19 11:14:59;;;;;;;;;;;;;;;;;;5094018;28;19924;-71
2021/09/19 11:17:26;;;;;;;;;;;;;;;;;;5093104;28;20382;-74
2021/09/19 11:19:52;;;;;;;;;;;;;;;;;;5093272;28;19930;-74
2021/09/19 11:22:18;;;;;;;;;;;;;;;;;;5093822;28;19925;-73
2021/09/19 11:24:44;;;;;;;;;;;;;;;;;;5092884;28;20394;-73
2021/09/19 11:27:11;;;;;;;;;;;;;;;;;;5093198;28;19924;-73
2021/09/19 11:29:37;;;;;;;;;;;;;;;;;;5093211;28;19947;-73
2021/09/19 11:32:06;;;;;;;;;;;;;;;;;;5111308;28;21321;-73
2021/09/19 11:34:32;;;;;;;;;;;;;;;;;;5113075;28;19923;-72
2021/09/19 11:36:58;;;;;;;;;;;;;;;;;;5113628;28;19924;-72
2021/09/19 11:39:25;;;;;;;;;;;;;;;;;;5113108;28;20443;-72
2021/09/19 11:41:51;;;;;;;;;;;;;;;;;;5113228;28;19924;-77
2021/09/19 11:44:17;;;;;;;;;;;;;;;;;;5112694;28;19985;-77
2021/09/19 11:46:44;;;;;;;;;;;;;;;;;;5113362;28;20533;-76
2021/09/19 11:49:10;;;;;;;;;;;;;;;;;;5114384;28;20057;-77
2021/09/19 11:51:36;;;;;;;;;;;;;;;;;;5113395;28;20412;-78
2021/09/19 11:54:02;;;;;;;;;;;;;;;;;;5113388;28;19924;-75
2021/09/19 11:56:30;;;;;;;;;;;;;;;;;;5112282;28;20286;-73
2021/09/19 11:58:56;;;;;;;;;;;;;;;;;;5112649;28;20018;-73
2021/09/19 12:01:23;;;;;;;;;;;;;;;;;;5113227;28;19924;-73
2021/09/19 12:03:49;;;;;;;;;;;;;;;;;;5112758;28;20270;-74
2021/09/19 12:06:15;;;;;;;;;;;;;;;;;;5112908;28;19935;-73
2021/09/19 12:08:42;;;;;;;;;;;;;;;;;;5112917;28;19924;-73
2021/09/19 12:11:08;;;;;;;;;;;;;;;;;;5112906;28;20370;-73
2021/09/19 12:13:34;;;;;;;;;;;;;;;;;;5112852;28;19930;-73
2021/09/19 12:16:00;;;;;;;;;;;;;;;;;;5113103;28;19930;-74
2021/09/19 12:18:27;;;;;;;;;;;;;;;;;;5112675;28;20297;-73
2021/09/19 12:20:54;;;;;;;;;;;;;;;;;;5113118;28;20022;-74
2021/09/19 12:23:22;;;;;;;;;;;;;;;;;;5112916;28;19930;-74
2021/09/19 12:25:48;;;;;;;;;;;;;;;;;;5113069;28;19930;-73
2021/09/19 12:28:15;;;;;;;;;;;;;;;;;;5112702;28;19924;-73
2021/09/19 12:30:41;;;;;;;;;;;;;;;;;;5112566;28;19924;-73
2021/09/19 12:33:07;;;;;;;;;;;;;;;;;;5112984;28;19924;-73
2021/09/19 12:35:34;;;;;;;;;;;;;;;;;;5112870;28;19970;-73
2021/09/19 12:38:00;;;;;;;;;;;;;;;;;;5112637;28;20293;-73
2021/09/19 12:40:26;;;;;;;;;;;;;;;;;;5112350;28;19927;-73
2021/09/19 12:42:53;;;;;;;;;;;;;;;;;;5113287;28;19931;-73
2021/09/19 12:45:19;;;;;;;;;;;;;;;;;;5112917;28;19924;-73
2021/09/19 12:47:45;;;;;;;;;;;;;;;;;;5112634;28;19923;-73
2021/09/19 12:50:11;;;;;;;;;;;;;;;;;;5112684;28;20417;-73
2021/09/19 12:52:38;;;;;;;;;;;;;;;;;;5112532;28;19924;-73
2021/09/19 12:55:04;;;;;;;;;;;;;;;;;;5112512;28;20396;-73
2021/09/19 12:57:30;;;;;;;;;;;;;;;;;;5112231;28;19930;-73
2021/09/19 12:59:57;;;;;;;;;;;;;;;;;;5112769;28;19935;-73
2021/09/19 13:02:23;;;;;;;;;;;;;;;;;;5112390;28;20301;-73
2021/09/19 13:04:49;;;;;;;;;;;;;;;;;;5113335;28;19931;-73
2021/09/19 13:07:16;;;;;;;;;;;;;;;;;;5116500;28;19931;-73
2021/09/19 13:09:43;;;;;;;;;;;;;;;;;;5116288;28;19923;-73
2021/09/19 13:12:09;;;;;;;;;;;;;;;;;;5116519;28;19924;-73
2021/09/19 13:14:36;;;;;;;;;;;;;;;;;;5115819;28;20374;-73
2021/09/19 13:17:02;;;;;;;;;;;;;;;;;;5116046;28;20370;-73
2021/09/19 13:19:28;;;;;;;;;;;;;;;;;;5115784;28;19924;-73
2021/09/19 13:21:54;;;;;;;;;;;;;;;;;;5116610;28;19924;-73
2021/09/19 13:24:21;;;;;;;;;;;;;;;;;;5115746;28;20370;-73
2021/09/19 13:26:47;;;;;;;;;;;;;;;;;;5115822;28;20285;-73
2021/09/19 13:29:16;;;;;;;;;;;;;;;;;;5115926;28;19934;-73
2021/09/19 13:31:42;;;;;;;;;;;;;;;;;;5116007;28;19924;-73
2021/09/19 13:34:08;;;;;;;;;;;;;;;;;;5115809;28;19923;-73
2021/09/19 13:36:34;;;;;;;;;;;;;;;;;;5115562;28;19924;-73
2021/09/19 13:39:01;;;;;;;;;;;;;;;;;;5116016;28;19924;-73
2021/09/19 13:41:27;;;;;;;;;;;;;;;;;;5115668;28;20286;-73
2021/09/19 13:43:53;;;;;;;;;;;;;;;;;;5115575;28;19924;-73
2021/09/19 13:46:20;;;;;;;;;;;;;;;;;;5115718;28;19923;-74
2021/09/19 13:48:46;;;;;;;;;;;;;;;;;;5115275;28;20378;-73
2021/09/19 13:51:12;;;;;;;;;;;;;;;;;;5115967;28;19948;-73
2021/09/19 13:53:39;;;;;;;;;;;;;;;;;;5115120;28;19931;-73
2021/09/19 13:56:05;;;;;;;;;;;;;;;;;;5115215;28;19924;-73
2021/09/19 13:58:31;;;;;;;;;;;;;;;;;;5115258;28;19923;-73
2021/09/19 14:00:58;;;;;;;;;;;;;;;;;;5115013;28;19935;-73
2021/09/19 14:03:24;;;;;;;;;;;;;;;;;;5115157;28;19923;-74
2021/09/19 14:05:51;;;;;;;;;;;;;;;;;;5115419;28;19924;-73
2021/09/19 14:08:17;;;;;;;;;;;;;;;;;;5115377;28;19928;-73
2021/09/19 14:10:43;;;;;;;;;;;;;;;;;;5114657;28;20080;-73
2021/09/19 14:13:10;;;;;;;;;;;;;;;;;;5115147;28;19924;-73
2021/09/19 14:15:36;;;;;;;;;;;;;;;;;;5114239;28;20409;-73
2021/09/19 14:18:02;;;;;;;;;;;;;;;;;;5113843;28;19931;-73
2021/09/19 14:20:31;;;;;;;;;;;;;;;;;;5114878;28;19924;-73
2021/09/19 14:22:57;;;;;;;;;;;;;;;;;;5114829;28;20374;-73
2021/09/19 14:25:23;;;;;;;;;;;;;;;;;;5114695;28;19924;-73
2021/09/19 14:27:50;;;;;;;;;;;;;;;;;;5115123;28;20165;-73
2021/09/19 14:30:16;;;;;;;;;;;;;;;;;;5114793;28;20286;-73
2021/09/19 14:32:42;;;;;;;;;;;;;;;;;;5114304;28;19928;-73
2021/09/19 14:35:09;;;;;;;;;;;;;;;;;;5114892;28;20297;-73
2021/09/19 14:37:35;;;;;;;;;;;;;;;;;;5114229;28;19931;-73
2021/09/19 14:40:01;;;;;;;;;;;;;;;;;;5114564;28;19953;-74
2021/09/19 14:42:28;;;;;;;;;;;;;;;;;;5114189;28;19928;-74
2021/09/19 14:44:54;;;;;;;;;;;;;;;;;;5114719;28;19923;-73
2021/09/19 14:47:20;;;;;;;;;;;;;;;;;;5114369;28;20370;-73
2021/09/19 14:49:47;;;;;;;;;;;;;;;;;;5114082;28;19924;-73
2021/09/19 14:52:13;;;;;;;;;;;;;;;;;;5114455;28;19931;-73
2021/09/19 14:54:39;;;;;;;;;;;;;;;;;;5114168;28;20285;-73
2021/09/19 14:57:05;;;;;;;;;;;;;;;;;;5114069;28;19924;-73
2021/09/19 14:59:32;;;;;;;;;;;;;;;;;;5114205;28;19923;-73
2021/09/19 15:01:58;;;;;;;;;;;;;;;;;;5114022;28;20293;-73
2021/09/19 15:04:24;;;;;;;;;;;;;;;;;;5113608;28;19931;-73
2021/09/19 15:06:51;;;;;;;;;;;;;;;;;;5114229;28;19931;-73
2021/09/19 15:09:17;;;;;;;;;;;;;;;;;;5113924;28;19927;-73
2021/09/19 15:11:44;;;;;;;;;;;;;;;;;;5113617;28;19930;-73
2021/09/19 15:14:10;;;;;;;;;;;;;;;;;;5113946;28;19924;-73
2021/09/19 15:16:36;;;;;;;;;;;;;;;;;;5113567;28;20386;-73
2021/09/19 15:19:03;;;;;;;;;;;;;;;;;;5113554;28;19924;-73
2021/09/19 15:21:29;;;;;;;;;;;;;;;;;;5113692;28;19924;-73
2021/09/19 15:23:55;;;;;;;;;;;;;;;;;;5113565;28;20028;-73
2021/09/19 15:26:22;;;;;;;;;;;;;;;;;;5113511;28;20404;-73
2021/09/19 15:28:48;;;;;;;;;;;;;;;;;;5112951;28;19931;-73
2021/09/19 15:31:14;;;;;;;;;;;;;;;;;;5113867;28;19930;-73
2021/09/19 15:33:41;;;;;;;;;;;;;;;;;;5113415;28;19938;-73
2021/09/19 15:36:07;;;;;;;;;;;;;;;;;;5113391;28;19931;-73
2021/09/19 15:38:33;;;;;;;;;;;;;;;;;;5113626;28;19931;-73
2021/09/19 15:41:08;;;;;;;;;;;;;;;;;;5113171;28;20374;-73
2021/09/19 15:43:35;;;;;;;;;;;;;;;;;;5113098;28;19923;-73
2021/09/19 15:46:01;;;;;;;;;;;;;;;;;;5113590;28;19924;-73
2021/09/19 15:48:28;;;;;;;;;;;;;;;;;;5113019;28;20290;-73
2021/09/19 15:50:54;;;;;;;;;;;;;;;;;;5112889;28;19924;-73
2021/09/19 15:53:20;;;;;;;;;;;;;;;;;;5113372;28;19947;-73
2021/09/19 15:55:47;;;;;;;;;;;;;;;;;;5113104;28;19936;-73
2021/09/19 15:58:13;;;;;;;;;;;;;;;;;;5112993;28;20294;-73
2021/09/19 16:00:41;;;;;;;;;;;;;;;;;;5112987;28;19924;-73
2021/09/19 16:03:07;;;;;;;;;;;;;;;;;;5112997;28;19924;-73
2021/09/19 16:05:33;;;;;;;;;;;;;;;;;;5113017;28;19938;-73
2021/09/19 16:07:59;;;;;;;;;;;;;;;;;;5112956;28;20289;-73
2021/09/19 16:10:26;;;;;;;;;;;;;;;;;;5112731;28;19930;-73
2021/09/19 16:12:56;;;;;;;;;;;;;;;;;;5113052;28;19930;-72
2021/09/19 16:15:22;;;;;;;;;;;;;;;;;;5112937;28;19924;-73
2021/09/19 16:17:49;;;;;;;;;;;;;;;;;;5112859;28;19935;-73
2021/09/19 16:20:15;;;;;;;;;;;;;;;;;;5112870;28;20274;-73
2021/09/19 16:22:41;;;;;;;;;;;;;;;;;;5112506;28;19924;-73
2021/09/19 16:25:08;;;;;;;;;;;;;;;;;;5112672;28;19924;-73
2021/09/19 16:27:34;;;;;;;;;;;;;;;;;;5112562;28;20373;-73
2021/09/19 16:30:00;;;;;;;;;;;;;;;;;;5113080;28;19923;-73
2021/09/19 16:32:27;;;;;;;;;;;;;;;;;;5112396;28;20373;-73
2021/09/19 16:34:53;;;;;;;;;;;;;;;;;;5112899;28;19931;-73
2021/09/19 16:37:19;;;;;;;;;;;;;;;;;;5112900;28;19927;-73
2021/09/19 16:39:46;;;;;;;;;;;;;;;;;;5113297;28;19924;-73